createdAt,value
2022-12-11T00:53:41.023Z,39.00
2022-12-11T00:56:17.105Z,39.35
2022-12-11T00:58:44.425Z,40.60
2022-12-11T01:01:14.575Z,44.85
2022-12-11T01:03:41.309Z,39.03
2022-12-11T01:06:08.691Z,45.95
2022-12-11T01:08:38.525Z,41.78
2022-12-11T01:11:08.619Z,37.78
2022-12-11T01:13:35.402Z,45.43
2022-12-11T01:16:10.447Z,42.05
2022-12-11T01:18:38.493Z,40.80
2022-12-11T01:21:10.164Z,44.00
2022-12-11T01:23:37.332Z,40.70
2022-12-11T01:26:13.757Z,39.78
2022-12-11T01:28:41.122Z,37.97
2022-12-11T01:31:10.069Z,41.67
2022-12-11T01:33:37.486Z,41.33
2022-12-11T01:36:09.670Z,43.47
2022-12-11T01:38:36.393Z,42.60
2022-12-11T01:41:03.797Z,40.45
2022-12-11T01:43:31.203Z,45.33
2022-12-11T01:45:58.033Z,43.33
2022-12-11T01:48:31.654Z,42.47
2022-12-11T01:51:02.565Z,44.35
2022-12-11T01:53:43.582Z,46.17
2022-12-11T01:56:11.021Z,43.50
2022-12-11T01:58:44.252Z,45.63
2022-12-11T02:01:25.436Z,40.88
2022-12-11T02:03:53.657Z,43.45
2022-12-11T02:06:31.311Z,44.53
2022-12-11T02:08:58.297Z,42.38
2022-12-11T02:11:35.995Z,41.95
2022-12-11T02:14:14.397Z,40.90
2022-12-11T02:16:51.789Z,42.10
2022-12-11T02:19:35.241Z,43.38
2022-12-11T02:22:08.989Z,41.50
2022-12-11T02:24:56.082Z,36.50
2022-12-11T02:27:44.404Z,40.75
2022-12-11T02:30:14.831Z,39.70
2022-12-11T02:32:53.954Z,41.75
2022-12-11T02:35:40.640Z,41.35
2022-12-11T02:38:17.870Z,37.00
2022-12-11T02:40:48.339Z,39.85
2022-12-11T02:45:46.790Z,36.55
2022-12-11T02:50:49.813Z,38.85
2022-12-11T02:53:21.810Z,35.85
2022-12-11T02:55:54.440Z,38.08
2022-12-11T02:58:28.430Z,39.45
2022-12-11T03:00:55.107Z,35.72
2022-12-11T03:03:22.866Z,40.22
2022-12-11T03:05:49.711Z,38.08
2022-12-11T03:08:18.598Z,39.83
2022-12-11T03:10:45.678Z,38.47
2022-12-11T03:13:14.879Z,37.17
2022-12-11T03:15:56.550Z,36.28
2022-12-11T03:18:29.006Z,38.97
2022-12-11T03:21:08.259Z,38.40
2022-12-11T03:23:48.227Z,41.08
2022-12-11T03:26:17.323Z,40.80
2022-12-11T03:29:03.155Z,41.53
2022-12-11T03:31:36.991Z,42.78
2022-12-11T03:34:13.845Z,43.38
2022-12-11T03:36:43.717Z,42.00
2022-12-11T03:39:16.352Z,43.63
2022-12-11T03:41:46.062Z,42.00
2022-12-11T03:44:13.618Z,37.10
2022-12-11T03:46:43.640Z,43.33
2022-12-11T03:49:41.965Z,38.92
2022-12-11T03:52:12.852Z,39.30
2022-12-11T03:54:41.896Z,42.78
2022-12-11T03:57:12.388Z,40.35
2022-12-11T03:59:39.505Z,42.05
2022-12-11T04:02:10.995Z,48.70
2022-12-11T04:04:38.838Z,42.97
2022-12-11T04:07:05.547Z,40.90
2022-12-11T04:09:32.688Z,40.20
2022-12-11T04:11:59.679Z,41.92
2022-12-11T04:14:45.416Z,43.05
2022-12-11T04:17:12.104Z,38.33
2022-12-11T04:19:57.177Z,36.78
2022-12-11T04:22:27.029Z,40.67
2022-12-11T04:24:53.738Z,44.20
2022-12-11T04:27:39.504Z,43.83
2022-12-11T04:30:08.887Z,45.42
2022-12-11T04:32:35.494Z,41.72
2022-12-11T04:35:02.253Z,42.88
2022-12-11T04:37:29.139Z,42.25
2022-12-11T04:39:55.823Z,41.42
2022-12-11T04:42:22.507Z,43.03
2022-12-11T04:44:49.233Z,44.58
2022-12-11T04:47:15.841Z,41.50
2022-12-11T04:49:42.719Z,40.00
2022-12-11T04:52:09.837Z,43.22
2022-12-11T04:54:36.547Z,40.28
2022-12-11T04:57:03.324Z,46.00
2022-12-11T04:59:30.296Z,41.53
2022-12-11T05:01:57.672Z,40.47
2022-12-11T05:04:24.385Z,42.28
2022-12-11T05:06:51.599Z,41.50
2022-12-11T05:09:18.368Z,42.55
2022-12-11T05:11:45.105Z,36.63
2022-12-11T05:14:11.875Z,44.00
2022-12-11T05:16:38.492Z,42.17
2022-12-11T05:19:05.280Z,47.47
2022-12-11T05:21:35.151Z,42.85
2022-12-11T05:24:02.680Z,44.58
2022-12-11T05:26:29.634Z,40.90
2022-12-11T05:28:56.443Z,40.08
2022-12-11T05:31:25.513Z,43.38
2022-12-11T05:33:53.041Z,38.90
2022-12-11T05:36:23.325Z,39.08
2022-12-11T05:38:50.847Z,44.33
2022-12-11T05:41:20.732Z,40.55
2022-12-11T05:43:48.459Z,40.67
2022-12-11T05:46:18.637Z,41.92
2022-12-11T05:48:47.682Z,42.55
2022-12-11T05:51:15.899Z,38.90
2022-12-11T05:53:44.447Z,39.47
2022-12-11T05:56:13.917Z,40.08
2022-12-11T05:58:41.548Z,38.47
2022-12-11T06:01:14.758Z,39.10
2022-12-11T06:03:41.770Z,40.80
2022-12-11T06:06:08.829Z,38.53
2022-12-11T06:08:35.734Z,39.78
2022-12-11T06:11:03.501Z,38.22
2022-12-11T06:13:30.956Z,42.40
2022-12-11T06:16:03.274Z,38.97
2022-12-11T06:18:30.173Z,41.72
2022-12-11T06:20:56.838Z,37.65
2022-12-11T06:23:24.090Z,40.28
2022-12-11T06:25:50.848Z,41.45
2022-12-11T06:28:17.561Z,37.88
2022-12-11T06:30:45.121Z,41.20
2022-12-11T06:33:12.128Z,41.45
2022-12-11T06:35:42.252Z,42.42
2022-12-11T06:38:10.820Z,33.92
2022-12-11T06:40:38.331Z,35.65
2022-12-11T06:43:05.092Z,38.35
2022-12-11T06:45:31.867Z,36.40
2022-12-11T06:47:59.005Z,38.28
2022-12-11T06:50:25.991Z,33.13
2022-12-11T06:52:52.703Z,39.55
2022-12-11T06:55:19.425Z,38.78
2022-12-11T06:57:46.019Z,34.92
2022-12-11T07:00:13.445Z,34.45
2022-12-11T07:02:40.123Z,38.30
2022-12-11T07:05:07.184Z,43.35
2022-12-11T07:07:34.591Z,43.13
2022-12-11T07:10:07.552Z,44.53
2022-12-11T07:12:35.463Z,40.97
2022-12-11T07:15:02.454Z,43.92
2022-12-11T07:17:30.105Z,39.95
2022-12-11T07:19:57.004Z,42.20
2022-12-11T07:22:23.668Z,43.67
2022-12-11T07:24:50.301Z,41.63
2022-12-11T07:27:16.979Z,40.05
2022-12-11T07:29:45.051Z,41.10
2022-12-11T07:32:11.969Z,38.00
2022-12-11T07:34:38.989Z,39.38
2022-12-11T07:37:05.979Z,41.78
2022-12-11T07:39:32.997Z,47.28
2022-12-11T07:42:00.090Z,45.72
2022-12-11T07:44:26.911Z,44.10
2022-12-11T07:46:53.552Z,41.55
2022-12-11T07:49:20.276Z,38.65
2022-12-11T07:51:46.965Z,38.20
2022-12-11T07:54:16.981Z,44.58
2022-12-11T07:56:49.790Z,46.22
2022-12-11T07:59:20.945Z,44.60
2022-12-11T08:01:47.856Z,44.53
2022-12-11T08:04:15.924Z,42.30
2022-12-11T08:06:43.175Z,46.70
2022-12-11T08:09:20.738Z,45.83
2022-12-11T08:11:50.490Z,41.40
2022-12-11T08:14:17.824Z,40.50
2022-12-11T08:16:44.762Z,42.80
2022-12-11T08:19:12.778Z,45.33
2022-12-11T08:21:40.178Z,43.60
2022-12-11T08:24:08.048Z,44.95
2022-12-11T08:26:34.854Z,40.00
2022-12-11T08:29:02.777Z,40.78
2022-12-11T08:31:30.040Z,43.25
2022-12-11T08:33:57.424Z,42.42
2022-12-11T08:36:25.273Z,36.75
2022-12-11T08:38:52.348Z,39.22
2022-12-11T08:41:22.178Z,40.85
2022-12-11T08:43:49.076Z,40.78
2022-12-11T08:46:16.190Z,42.42
2022-12-11T08:48:43.422Z,40.05
2022-12-11T08:51:15.885Z,42.15
2022-12-11T08:53:43.270Z,39.40
2022-12-11T08:56:12.868Z,40.92
2022-12-11T08:58:39.578Z,43.22
2022-12-11T09:01:12.568Z,43.28
2022-12-11T09:03:40.040Z,41.03
2022-12-11T09:06:09.018Z,42.45
2022-12-11T09:08:36.246Z,40.80
2022-12-11T09:11:12.250Z,42.25
2022-12-11T09:13:40.140Z,43.42
2022-12-11T09:16:09.682Z,37.88
2022-12-11T09:18:37.350Z,44.38
2022-12-11T09:21:09.834Z,40.63
2022-12-11T09:23:37.281Z,41.20
2022-12-11T09:26:06.302Z,39.92
2022-12-11T09:28:33.773Z,42.42
2022-12-11T09:31:00.847Z,40.72
2022-12-11T09:33:27.851Z,41.05
2022-12-11T09:35:59.409Z,41.33
2022-12-11T09:38:26.691Z,44.03
2022-12-11T09:40:53.700Z,39.47
2022-12-11T09:43:44.251Z,38.40
2022-12-11T09:46:13.964Z,45.97
2022-12-11T09:48:46.762Z,45.70
2022-12-11T09:51:31.848Z,39.67
2022-12-11T09:54:01.797Z,41.50
2022-12-11T09:56:33.483Z,39.92
2022-12-11T09:59:22.220Z,43.15
2022-12-11T10:02:11.081Z,43.65
2022-12-11T10:04:37.924Z,42.92
2022-12-11T10:07:29.895Z,45.45
2022-12-11T10:10:23.334Z,43.08
2022-12-11T10:13:04.629Z,40.42
2022-12-11T10:15:43.042Z,41.53
2022-12-11T10:18:16.053Z,44.30
2022-12-11T10:20:44.600Z,44.28
2022-12-11T10:23:22.449Z,39.08
2022-12-11T10:26:05.939Z,40.75
2022-12-11T10:28:32.707Z,39.65
2022-12-11T10:31:14.135Z,40.53
2022-12-11T10:34:00.990Z,37.95
2022-12-11T10:36:35.203Z,41.80
2022-12-11T10:39:02.935Z,39.05
2022-12-11T10:41:41.960Z,45.47
2022-12-11T10:44:19.511Z,36.40
2022-12-11T10:46:48.025Z,35.45
2022-12-11T10:49:26.688Z,39.40
2022-12-11T10:51:55.510Z,41.78
2022-12-11T10:54:38.403Z,40.22
2022-12-11T10:57:08.711Z,36.88
2022-12-11T10:59:38.144Z,39.45
2022-12-11T11:02:07.426Z,39.15
2022-12-11T11:04:38.082Z,41.67
2022-12-11T11:09:43.544Z,42.63
2022-12-11T11:12:40.561Z,38.33
2022-12-11T11:15:13.940Z,38.40
2022-12-11T11:17:54.523Z,39.38
2022-12-11T11:20:29.227Z,41.20
2022-12-11T11:23:11.374Z,39.33
2022-12-11T11:25:38.067Z,38.80
2022-12-11T11:28:08.368Z,38.05
2022-12-11T11:30:41.794Z,39.15
2022-12-11T11:33:22.529Z,41.25
2022-12-11T11:38:25.231Z,39.17
2022-12-11T11:41:31.813Z,42.55
2022-12-11T11:44:02.542Z,44.60
2022-12-11T11:47:10.767Z,36.42
2022-12-11T11:49:41.605Z,41.58
2022-12-11T11:52:17.805Z,41.92
2022-12-11T11:55:09.850Z,41.25
2022-12-11T11:57:51.345Z,37.63
2022-12-11T12:00:22.185Z,40.38
2022-12-11T12:02:54.915Z,38.80
2022-12-11T12:05:39.458Z,41.95
2022-12-11T12:08:41.471Z,39.13
2022-12-11T12:11:14.185Z,42.53
2022-12-11T12:13:50.038Z,39.30
2022-12-11T12:16:55.123Z,39.85
2022-12-11T12:19:43.803Z,40.15
2022-12-11T12:22:58.673Z,41.85
2022-12-11T12:25:45.688Z,35.55
2022-12-11T12:28:33.779Z,40.17
2022-12-11T12:31:03.812Z,41.28
2022-12-11T12:33:48.198Z,38.63
2022-12-11T12:36:20.035Z,36.33
2022-12-11T12:38:59.274Z,34.58
2022-12-11T12:41:35.593Z,40.22
2022-12-11T12:44:10.880Z,44.00
2022-12-11T12:46:52.238Z,42.45
2022-12-11T12:49:35.665Z,40.33
2022-12-11T12:52:04.730Z,37.72
2022-12-11T12:54:33.532Z,37.83
2022-12-11T12:57:04.209Z,42.53
2022-12-11T13:02:01.647Z,38.97
2022-12-11T13:04:55.550Z,37.58
2022-12-11T13:07:29.680Z,37.38
2022-12-11T13:10:23.136Z,40.92
2022-12-11T13:12:50.220Z,44.35
2022-12-11T13:15:42.892Z,43.30
2022-12-11T13:18:31.632Z,49.92
2022-12-11T13:20:58.440Z,45.58
2022-12-11T13:23:33.923Z,42.63
2022-12-11T13:26:03.994Z,45.17
2022-12-11T13:28:48.163Z,41.03
2022-12-11T13:31:15.391Z,43.08
2022-12-11T13:33:47.096Z,40.15
2022-12-11T13:36:17.928Z,38.55
2022-12-11T13:38:55.057Z,40.85
2022-12-11T13:41:21.967Z,38.80
2022-12-11T13:43:50.557Z,39.17
2022-12-11T13:46:24.718Z,37.30
2022-12-11T13:49:18.186Z,39.92
2022-12-11T13:51:52.332Z,40.95
2022-12-11T13:54:19.538Z,41.55
2022-12-11T13:57:03.547Z,43.10
2022-12-11T13:59:35.125Z,40.95
2022-12-11T14:02:15.445Z,41.75
2022-12-11T14:04:42.761Z,40.50
2022-12-11T14:07:11.139Z,38.22
2022-12-11T14:09:43.567Z,41.00
2022-12-11T14:12:19.935Z,37.83
2022-12-11T14:14:54.954Z,40.13
2022-12-11T14:17:28.343Z,43.53
2022-12-11T14:19:57.628Z,42.95
2022-12-11T14:22:27.357Z,39.47
2022-12-11T14:24:56.580Z,39.03
2022-12-11T14:27:24.792Z,44.00
2022-12-11T14:29:51.841Z,57.53
2022-12-11T14:32:37.234Z,49.40
2022-12-11T14:35:07.251Z,47.53
2022-12-11T14:37:35.819Z,45.47
2022-12-11T14:40:07.917Z,56.47
2022-12-11T14:42:41.002Z,49.00
2022-12-11T14:45:19.212Z,45.28
2022-12-11T14:47:46.077Z,42.05
2022-12-11T14:50:19.036Z,42.55
2022-12-11T14:52:53.435Z,44.30
2022-12-11T14:55:25.225Z,39.92
2022-12-11T14:57:57.470Z,44.42
2022-12-11T15:00:29.220Z,43.20
2022-12-11T15:03:00.617Z,42.22
2022-12-11T15:05:28.108Z,43.58
2022-12-11T15:08:13.115Z,45.67
2022-12-11T15:10:55.454Z,46.67
2022-12-11T15:13:25.785Z,47.42
2022-12-11T15:15:55.235Z,46.25
2022-12-11T15:18:26.271Z,49.00
2022-12-11T15:20:55.032Z,45.85
2022-12-11T15:23:22.122Z,47.05
2022-12-11T15:25:54.466Z,45.00
2022-12-11T15:28:34.005Z,95.30
2022-12-11T15:31:06.846Z,54.70
2022-12-11T15:33:34.760Z,49.60
2022-12-11T15:36:22.069Z,46.85
2022-12-11T15:38:48.828Z,56.63
2022-12-11T15:41:20.960Z,49.40
2022-12-11T15:43:48.166Z,43.80
2022-12-11T15:46:15.015Z,45.28
2022-12-11T15:48:41.749Z,46.28
2022-12-11T15:51:09.876Z,41.17
2022-12-11T15:53:37.047Z,43.45
2022-12-11T15:56:03.978Z,47.58
2022-12-11T15:58:31.054Z,50.88
2022-12-11T16:00:57.959Z,46.40
2022-12-11T16:03:25.239Z,63.67
2022-12-11T16:05:53.184Z,54.88
2022-12-11T16:08:22.737Z,51.85
2022-12-11T16:10:52.748Z,43.58
2022-12-11T16:13:19.711Z,37.90
2022-12-11T16:15:48.855Z,37.72
2022-12-11T16:18:19.163Z,38.80
2022-12-11T16:20:47.171Z,40.15
2022-12-11T16:23:14.865Z,39.38
2022-12-11T16:25:42.496Z,39.00
2022-12-11T16:28:11.867Z,40.97
2022-12-11T16:30:38.695Z,40.60
2022-12-11T16:33:12.123Z,37.95
2022-12-11T16:35:39.174Z,39.67
2022-12-11T16:38:05.923Z,38.55
2022-12-11T16:40:32.522Z,37.30
2022-12-11T16:42:59.261Z,35.75
2022-12-11T16:45:26.861Z,32.47
2022-12-11T16:47:54.300Z,35.92
2022-12-11T16:50:22.849Z,35.42
2022-12-11T16:52:50.149Z,33.50
2022-12-11T16:55:21.109Z,34.30
2022-12-11T16:57:48.193Z,35.00
2022-12-11T17:00:15.862Z,34.05
2022-12-11T17:02:42.599Z,32.28
2022-12-11T17:05:09.631Z,35.53
2022-12-11T17:07:36.535Z,33.45
2022-12-11T17:10:03.570Z,33.00
2022-12-11T17:12:30.463Z,33.92
2022-12-11T17:14:57.479Z,35.75
2022-12-11T17:17:24.225Z,35.95
2022-12-11T17:19:51.064Z,33.25
2022-12-11T17:22:17.927Z,34.65
2022-12-11T17:24:44.729Z,32.22
2022-12-11T17:27:11.379Z,33.78
2022-12-11T17:29:38.287Z,35.90
2022-12-11T17:32:05.403Z,36.20
2022-12-11T17:34:37.770Z,36.00
2022-12-11T17:37:06.052Z,33.65
2022-12-11T17:39:33.509Z,34.83
2022-12-11T17:42:00.761Z,35.75
2022-12-11T17:44:30.625Z,53.85
2022-12-11T17:47:02.653Z,37.45
2022-12-11T17:49:35.561Z,41.80
2022-12-11T17:52:02.397Z,36.00
2022-12-11T17:54:29.302Z,34.03
2022-12-11T17:56:57.860Z,36.13
2022-12-11T17:59:24.711Z,33.90
2022-12-11T18:01:51.474Z,34.58
2022-12-11T18:04:18.394Z,31.85
2022-12-11T18:06:45.496Z,32.47
2022-12-11T18:09:12.526Z,32.42
2022-12-11T18:11:40.153Z,32.85
2022-12-11T18:14:10.079Z,34.42
2022-12-11T18:16:41.690Z,34.72
2022-12-11T18:19:08.797Z,33.10
2022-12-11T18:21:41.077Z,35.78
2022-12-11T18:24:09.668Z,31.05
2022-12-11T18:26:37.708Z,31.73
2022-12-11T18:29:04.751Z,31.38
2022-12-11T18:31:31.552Z,35.95
2022-12-11T18:33:58.425Z,32.92
2022-12-11T18:36:25.144Z,33.28
2022-12-11T18:38:52.048Z,34.35
2022-12-11T18:41:20.085Z,33.53
2022-12-11T18:43:46.872Z,33.10
2022-12-11T18:46:16.541Z,30.83
2022-12-11T18:48:44.750Z,37.20
2022-12-11T18:51:14.878Z,31.27
2022-12-11T18:53:41.545Z,30.05
2022-12-11T18:56:10.782Z,30.35
2022-12-11T18:58:37.966Z,31.15
2022-12-11T19:01:20.163Z,33.10
2022-12-11T19:03:47.678Z,34.70
2022-12-11T19:06:19.287Z,34.20
2022-12-11T19:08:46.930Z,31.65
2022-12-11T19:11:18.208Z,30.63
2022-12-11T19:13:45.420Z,33.38
2022-12-11T19:16:21.112Z,31.10
2022-12-11T19:18:48.752Z,29.52
2022-12-11T19:21:16.973Z,30.40
2022-12-11T19:23:45.021Z,30.38
2022-12-11T19:26:14.325Z,31.23
2022-12-11T19:28:41.521Z,29.55
2022-12-11T19:31:10.262Z,29.65
2022-12-11T19:33:37.269Z,30.55
2022-12-11T19:36:12.309Z,31.13
2022-12-11T19:38:40.402Z,30.02
2022-12-11T19:41:09.890Z,28.67
2022-12-11T19:43:37.218Z,30.23
2022-12-11T19:46:06.338Z,28.77
2022-12-11T19:48:33.097Z,30.23
2022-12-11T19:51:08.506Z,32.63
2022-12-11T19:53:36.149Z,29.77
2022-12-11T19:56:03.175Z,31.58
2022-12-11T19:58:30.125Z,31.83
2022-12-11T20:00:57.036Z,35.00
2022-12-11T20:03:23.786Z,34.40
2022-12-11T20:05:50.894Z,32.28
2022-12-11T20:08:43.590Z,31.00
2022-12-11T20:11:06.411Z,29.73
2022-12-11T20:13:33.267Z,30.88
2022-12-11T20:16:00.815Z,30.08
2022-12-11T20:18:27.661Z,31.95
2022-12-11T20:20:54.274Z,30.60
2022-12-11T20:23:20.972Z,30.27
2022-12-11T20:25:47.757Z,31.80
2022-12-11T20:28:14.443Z,35.25
2022-12-11T20:30:41.059Z,37.53
2022-12-11T20:33:08.030Z,38.33
2022-12-11T20:35:34.686Z,38.97
2022-12-11T20:38:01.964Z,32.97
2022-12-11T20:40:28.962Z,32.47
2022-12-11T20:42:55.612Z,29.88
2022-12-11T20:45:22.347Z,30.73
2022-12-11T20:47:49.151Z,31.10
2022-12-11T20:50:15.922Z,29.02
2022-12-11T20:52:42.643Z,29.70
2022-12-11T20:55:10.080Z,29.95
2022-12-11T20:57:43.378Z,31.85
2022-12-11T21:00:12.530Z,30.23
2022-12-11T22:13:26.251Z,27.83
2022-12-11T22:15:53.777Z,28.08
2022-12-11T22:18:20.742Z,28.67
2022-12-11T22:20:48.298Z,27.40
2022-12-11T22:23:14.961Z,27.88
2022-12-11T22:25:41.724Z,29.77
2022-12-11T22:28:08.692Z,25.83
2022-12-11T22:30:36.841Z,29.23
2022-12-11T22:33:03.830Z,28.05
2022-12-11T22:35:30.961Z,26.23
2022-12-11T22:37:57.591Z,27.85
2022-12-11T22:40:24.557Z,28.45
2022-12-11T22:42:51.557Z,29.27
2022-12-11T22:45:18.351Z,27.60
2022-12-11T22:47:48.260Z,28.15
2022-12-11T22:50:15.956Z,31.63
2022-12-11T22:52:44.809Z,27.55
2022-12-11T22:55:11.768Z,29.75
2022-12-11T22:57:39.120Z,29.65
2022-12-11T23:00:08.842Z,29.67
2022-12-11T23:02:36.601Z,27.75
2022-12-11T23:05:04.640Z,29.13
2022-12-11T23:07:31.638Z,29.15
2022-12-11T23:09:58.414Z,27.00
2022-12-11T23:12:25.408Z,30.83
2022-12-11T23:14:52.436Z,27.15
2022-12-11T23:17:19.101Z,29.27
2022-12-11T23:19:46.277Z,27.02
2022-12-11T23:22:13.476Z,28.15
2022-12-11T23:24:40.209Z,26.73
2022-12-11T23:27:07.133Z,27.92
2022-12-11T23:29:33.908Z,30.10
2022-12-11T23:32:00.954Z,27.67
2022-12-11T23:34:28.334Z,28.25
2022-12-11T23:36:54.985Z,29.42
2022-12-11T23:39:21.813Z,27.42
2022-12-11T23:41:48.646Z,28.25
2022-12-11T23:44:15.269Z,28.00
2022-12-11T23:46:42.705Z,27.45
2022-12-11T23:49:09.516Z,28.38
2022-12-11T23:51:36.211Z,30.80
2022-12-11T23:54:03.142Z,31.98
2022-12-11T23:56:30.401Z,27.02
2022-12-11T23:58:57.579Z,27.65
